createdAt,value
2023-04-19T00:00:32.519Z,97813.53
2023-04-19T00:02:59.176Z,97972.28
2023-04-19T00:05:26.357Z,97857.13
2023-04-19T00:07:52.874Z,97968.84
2023-04-19T00:10:19.560Z,97944.53
2023-04-19T00:12:46.144Z,97655.28
2023-04-19T00:15:12.688Z,97966.31
2023-04-19T00:17:39.283Z,97912.41
2023-04-19T00:20:06.495Z,97935.94
2023-04-19T00:22:33.044Z,97817.56
2023-04-19T00:25:11.858Z,97952.78
2023-04-19T00:27:38.517Z,97951.06
2023-04-19T00:30:05.651Z,97949.41
2023-04-19T00:32:32.246Z,97925.81
2023-04-19T00:34:58.844Z,97948.50
2023-04-19T00:37:25.395Z,97940.00
2023-04-19T00:39:51.886Z,97942.56
2023-04-19T00:42:18.430Z,97941.75
2023-04-19T00:44:44.939Z,97941.75
2023-04-19T00:47:11.490Z,97939.19
2023-04-19T00:49:38.058Z,97933.22
2023-04-19T00:52:04.842Z,97839.09
2023-04-19T00:54:31.409Z,97928.94
2023-04-19T00:56:58.432Z,97810.25
2023-04-19T00:59:25.128Z,97930.59
2023-04-19T01:01:51.750Z,97930.59
2023-04-19T01:04:18.562Z,97870.41
2023-04-19T01:06:45.849Z,97934.03
2023-04-19T01:09:12.381Z,97927.19
2023-04-19T01:11:39.110Z,97929.75
2023-04-19T01:14:06.401Z,97887.78
2023-04-19T01:16:33.509Z,97897.69
2023-04-19T01:19:00.178Z,97765.03
2023-04-19T01:21:29.395Z,97890.03
2023-04-19T01:23:56.006Z,97826.22
2023-04-19T01:26:22.592Z,97913.56
2023-04-19T01:28:49.081Z,97911.88
2023-04-19T01:31:15.638Z,97910.13
2023-04-19T01:33:42.232Z,97902.34
2023-04-19T01:36:08.811Z,97773.50
2023-04-19T01:38:36.034Z,97901.69
2023-04-19T01:41:02.561Z,97899.94
2023-04-19T01:43:29.144Z,97744.25
2023-04-19T01:45:55.847Z,97893.97
2023-04-19T01:48:22.357Z,97869.56
2023-04-19T01:50:48.922Z,97843.56
2023-04-19T01:53:15.502Z,97894.03
2023-04-19T01:55:42.549Z,97797.59
2023-04-19T01:58:09.811Z,97883.84
2023-04-19T02:00:36.347Z,97798.56
2023-04-19T02:03:03.023Z,97806.53
2023-04-19T02:05:29.716Z,97873.63
2023-04-19T02:07:56.262Z,97882.13
2023-04-19T02:10:22.830Z,97876.25
2023-04-19T02:12:49.346Z,97877.84
2023-04-19T02:15:15.900Z,97890.66
2023-04-19T02:17:43.461Z,97690.00
2023-04-19T02:20:10.852Z,97751.66
2023-04-19T02:22:37.416Z,97866.75
2023-04-19T02:25:04.809Z,97877.03
2023-04-19T02:27:31.372Z,97871.06
2023-04-19T02:29:57.891Z,97850.16
2023-04-19T02:32:24.414Z,97865.97
2023-04-19T02:34:50.978Z,97877.03
2023-04-19T02:37:18.415Z,97864.22
2023-04-19T02:39:45.986Z,97853.09
2023-04-19T02:42:12.630Z,97819.97
2023-04-19T02:44:39.108Z,97854.91
2023-04-19T02:47:05.864Z,97781.88
2023-04-19T02:49:35.724Z,97695.59
2023-04-19T02:52:02.319Z,97852.34
2023-04-19T02:54:28.945Z,97851.47
2023-04-19T02:56:56.605Z,97845.50
2023-04-19T02:59:23.133Z,97838.63
2023-04-19T03:01:49.676Z,97846.34
2023-04-19T03:04:17.360Z,97803.78
2023-04-19T03:06:44.400Z,97723.69
2023-04-19T03:09:11.425Z,97808.34
2023-04-19T03:11:38.658Z,97835.31
2023-04-19T03:14:05.242Z,97822.56
2023-04-19T03:16:31.722Z,97764.91
2023-04-19T03:18:58.282Z,97836.22
2023-04-19T03:21:27.472Z,97826.84
2023-04-19T03:23:54.755Z,97830.25
2023-04-19T03:26:21.317Z,97778.88
2023-04-19T03:28:48.502Z,97823.47
2023-04-19T03:31:15.054Z,97822.63
2023-04-19T03:33:41.620Z,97741.59
2023-04-19T03:36:08.462Z,97822.66
2023-04-19T03:38:34.974Z,97697.25
2023-04-19T03:41:01.530Z,97820.06
2023-04-19T03:43:28.116Z,97814.06
2023-04-19T03:45:54.688Z,97811.53
2023-04-19T03:48:21.382Z,97816.63
2023-04-19T03:50:47.944Z,97810.66
2023-04-19T03:53:14.515Z,97736.75
2023-04-19T03:55:41.045Z,97806.50
2023-04-19T03:58:07.599Z,97809.03
2023-04-19T04:00:34.105Z,97781.25
2023-04-19T04:03:00.759Z,97656.63
2023-04-19T04:05:28.475Z,97808.16
2023-04-19T04:07:55.044Z,97809.91
2023-04-19T04:10:22.066Z,97806.50
2023-04-19T04:12:48.607Z,97706.44
2023-04-19T04:15:15.150Z,97761.09
2023-04-19T04:17:41.728Z,97813.31
2023-04-19T04:20:09.049Z,97666.94
2023-04-19T04:22:35.636Z,97692.22
2023-04-19T04:25:02.183Z,97820.13
2023-04-19T04:27:28.734Z,97813.31
2023-04-19T04:29:56.741Z,97817.63
2023-04-19T04:32:23.741Z,97813.31
2023-04-19T04:34:50.548Z,97810.78
2023-04-19T04:37:17.886Z,97824.41
2023-04-19T04:39:44.462Z,97814.13
2023-04-19T04:42:11.019Z,97815.03
2023-04-19T04:44:38.920Z,97740.19
2023-04-19T04:47:05.465Z,97835.44
2023-04-19T04:49:31.999Z,97815.81
2023-04-19T04:51:58.730Z,97817.56
2023-04-19T04:54:25.252Z,97801.91
2023-04-19T04:56:51.810Z,97792.31
2023-04-19T04:59:18.925Z,97809.91
2023-04-19T05:01:45.526Z,97815.88
2023-04-19T05:04:12.115Z,97817.56
2023-04-19T05:06:41.188Z,97809.91
2023-04-19T05:09:08.150Z,97782.16
2023-04-19T05:11:34.709Z,97806.50
2023-04-19T05:14:01.325Z,97807.38
2023-04-19T05:16:27.916Z,97805.59
2023-04-19T05:18:54.512Z,97806.50
2023-04-19T05:21:21.749Z,97809.84
2023-04-19T05:23:48.413Z,97803.00
2023-04-19T05:26:15.584Z,97803.75
2023-04-19T05:28:42.271Z,97804.75
2023-04-19T05:31:09.207Z,97796.03
2023-04-19T05:33:35.784Z,97798.72
2023-04-19T05:36:02.322Z,97795.97
2023-04-19T05:38:28.933Z,97799.53
2023-04-19T05:40:55.449Z,97797.84
2023-04-19T05:43:22.066Z,97805.47
2023-04-19T05:45:48.586Z,97793.59
2023-04-19T05:48:15.090Z,97790.19
2023-04-19T05:50:41.622Z,97793.59
2023-04-19T05:53:08.159Z,97789.44
2023-04-19T05:55:34.689Z,97767.63
2023-04-19T05:58:01.306Z,97791.19
2023-04-19T06:00:28.553Z,97787.75
2023-04-19T06:02:55.188Z,97779.97
2023-04-19T06:05:22.081Z,97792.91
2023-04-19T06:07:55.349Z,97787.75
2023-04-19T06:10:31.205Z,97789.44
2023-04-19T06:13:04.096Z,97784.41
2023-04-19T06:15:31.064Z,97791.19
2023-04-19T06:17:59.320Z,97764.31
2023-04-19T06:20:26.420Z,97785.19
2023-04-19T06:22:53.210Z,97779.25
2023-04-19T06:25:19.873Z,97774.69
2023-04-19T06:27:46.509Z,97782.59
2023-04-19T06:30:13.885Z,97774.16
2023-04-19T06:32:40.510Z,97781.75
2023-04-19T06:35:07.766Z,97777.53
2023-04-19T06:37:34.864Z,97776.69
2023-04-19T06:40:01.767Z,97780.09
2023-04-19T06:42:28.396Z,97775.88
2023-04-19T06:44:57.138Z,97742.94
2023-04-19T06:47:23.723Z,97769.09
2023-04-19T06:49:50.376Z,97752.56
2023-04-19T06:52:16.943Z,97754.41
2023-04-19T06:54:47.675Z,97762.19
2023-04-19T06:57:14.231Z,97766.63
2023-04-19T06:59:40.847Z,97764.91
2023-04-19T07:02:07.485Z,97758.97
2023-04-19T07:04:34.519Z,97752.91
2023-04-19T07:07:01.125Z,97753.69
2023-04-19T07:09:27.614Z,97756.41
2023-04-19T07:11:54.238Z,97746.22
2023-04-19T07:14:20.782Z,97735.88
2023-04-19T07:16:47.522Z,97740.28
2023-04-19T07:19:14.131Z,97740.28
2023-04-19T07:21:40.917Z,97736.06
2023-04-19T07:24:07.567Z,97729.97
2023-04-19T07:26:34.447Z,97741.16
2023-04-19T07:29:01.189Z,97733.50
2023-04-19T07:31:28.124Z,97730.97
2023-04-19T07:33:54.702Z,97724.91
2023-04-19T07:36:21.500Z,97719.69
2023-04-19T07:38:48.111Z,97632.84
2023-04-19T07:41:14.711Z,97724.16
2023-04-19T07:43:41.575Z,97721.59
2023-04-19T07:46:11.968Z,97720.75
2023-04-19T07:48:38.589Z,97735.25
2023-04-19T07:51:17.764Z,97725.84
2023-04-19T07:53:44.533Z,97725.03
2023-04-19T07:56:12.904Z,97721.59
2023-04-19T07:58:39.668Z,97720.69
2023-04-19T08:01:06.209Z,97721.59
2023-04-19T08:03:33.846Z,97719.06
2023-04-19T08:06:05.602Z,97725.91
2023-04-19T08:08:34.055Z,97713.91
2023-04-19T08:11:02.386Z,97719.00
2023-04-19T08:13:29.610Z,97722.47
2023-04-19T08:18:26.123Z,97714.78
2023-04-19T08:20:52.856Z,97716.44
2023-04-19T08:23:24.548Z,97715.72
2023-04-19T08:25:54.264Z,97716.56
2023-04-19T08:28:20.918Z,97715.72
2023-04-19T08:30:47.560Z,97710.63
2023-04-19T08:33:14.235Z,97708.84
2023-04-19T08:35:41.577Z,97718.25
2023-04-19T08:38:08.611Z,97700.19
2023-04-19T08:40:35.290Z,97703.69
2023-04-19T08:43:05.476Z,97710.63
2023-04-19T08:45:32.079Z,97710.63
2023-04-19T08:48:01.197Z,97703.75
2023-04-19T08:50:34.535Z,97702.97
2023-04-19T08:53:20.857Z,97699.47
2023-04-19T08:56:08.619Z,97674.44
2023-04-19T08:58:54.724Z,97699.53
2023-04-19T09:01:34.961Z,97691.00
2023-04-19T09:04:17.096Z,97691.88
2023-04-19T09:06:47.993Z,97684.88
2023-04-19T09:11:48.254Z,97681.72
2023-04-19T09:14:15.767Z,97681.72
2023-04-19T09:16:42.964Z,97674.91
2023-04-19T09:19:22.297Z,97679.19
2023-04-19T09:21:53.012Z,97679.19
2023-04-19T09:24:19.588Z,97674.91
2023-04-19T09:26:55.652Z,97663.69
2023-04-19T09:29:22.194Z,97673.06
2023-04-19T09:31:58.893Z,97664.59
2023-04-19T09:34:25.624Z,97671.53
2023-04-19T09:37:00.625Z,97665.59
2023-04-19T09:39:36.230Z,97664.75
2023-04-19T09:42:02.966Z,97662.25
2023-04-19T09:46:58.976Z,97658.81
2023-04-19T09:49:41.770Z,97657.94
2023-04-19T09:52:14.003Z,97655.41
2023-04-19T09:54:40.578Z,97652.72
2023-04-19T09:57:07.163Z,97650.19
2023-04-19T09:59:33.747Z,97651.19
2023-04-19T10:02:00.406Z,97649.50
2023-04-19T10:04:41.613Z,97650.28
2023-04-19T10:09:52.427Z,97646.06
2023-04-19T10:12:45.668Z,97649.50
2023-04-19T10:15:07.939Z,97647.78
2023-04-19T10:17:34.519Z,97639.13
2023-04-19T10:20:07.045Z,97650.34
2023-04-19T10:22:35.081Z,97649.50
2023-04-19T10:25:11.324Z,97654.59
2023-04-19T10:27:37.890Z,97643.41
2023-04-19T10:30:08.094Z,97639.88
2023-04-19T10:32:39.183Z,97648.56
2023-04-19T10:35:19.173Z,97640.91
2023-04-19T10:38:06.234Z,97611.28
2023-04-19T10:40:51.334Z,97640.97
2023-04-19T10:43:18.806Z,97641.84
2023-04-19T10:45:46.330Z,97628.03
2023-04-19T10:48:54.387Z,97629.94
2023-04-19T10:51:23.103Z,97638.47
2023-04-19T10:53:49.596Z,97637.59
2023-04-19T10:56:20.904Z,97618.78
2023-04-19T10:59:02.484Z,97618.88
2023-04-19T11:01:53.190Z,97620.63
2023-04-19T11:04:22.885Z,97612.09
2023-04-19T11:06:52.793Z,97607.81
2023-04-19T11:09:32.001Z,97594.78
2023-04-19T11:12:01.195Z,97610.41
2023-04-19T11:14:30.092Z,97599.28
2023-04-19T11:16:56.672Z,97602.75
2023-04-19T11:19:23.294Z,97599.31
2023-04-19T11:21:49.909Z,97591.69
2023-04-19T11:24:18.724Z,97594.22
2023-04-19T11:26:46.175Z,97596.78
2023-04-19T11:29:12.909Z,97586.47
2023-04-19T11:31:39.616Z,97578.69
2023-04-19T11:34:06.243Z,97590.00
2023-04-19T11:36:33.885Z,97591.69
2023-04-19T11:39:00.505Z,97581.47
2023-04-19T11:41:27.072Z,97579.81
2023-04-19T11:43:53.597Z,97576.31
2023-04-19T11:46:20.139Z,97590.00
2023-04-19T11:48:54.016Z,97580.63
2023-04-19T11:51:20.715Z,97587.44
2023-04-19T11:53:47.946Z,97582.28
2023-04-19T11:56:15.551Z,97578.06
2023-04-19T11:58:44.827Z,97579.75
2023-04-19T12:01:15.890Z,97575.53
2023-04-19T12:03:46.061Z,97569.53
2023-04-19T12:06:14.392Z,97572.97
2023-04-19T12:08:44.941Z,97572.97
2023-04-19T12:11:11.478Z,97566.00
2023-04-19T12:13:38.112Z,97574.66
2023-04-19T12:16:04.974Z,97572.88
2023-04-19T12:18:50.294Z,97563.34
2023-04-19T12:21:31.695Z,97576.38
2023-04-19T12:23:58.760Z,97572.09
2023-04-19T12:26:29.125Z,97577.25
2023-04-19T12:28:56.158Z,97570.47
2023-04-19T12:31:22.875Z,97573.88
2023-04-19T12:33:49.455Z,97563.63
2023-04-19T12:36:16.018Z,97567.94
2023-04-19T12:38:42.707Z,97567.97
2023-04-19T12:41:09.283Z,97564.44
2023-04-19T12:43:35.794Z,97575.63
2023-04-19T12:46:02.308Z,97567.00
2023-04-19T12:48:28.979Z,97568.72
2023-04-19T12:50:55.711Z,97561.00
2023-04-19T12:53:24.264Z,97571.31
2023-04-19T12:55:51.383Z,97565.38
2023-04-19T12:58:18.372Z,97566.22
2023-04-19T13:00:45.036Z,97557.56
2023-04-19T13:03:14.722Z,97565.38
2023-04-19T13:05:41.477Z,97564.50
2023-04-19T13:08:08.010Z,97566.22
2023-04-19T13:10:34.583Z,97560.28
2023-04-19T13:13:01.145Z,97572.19
2023-04-19T13:15:28.708Z,97570.47
2023-04-19T13:17:55.452Z,97560.22
2023-04-19T13:20:22.053Z,97556.84
2023-04-19T13:22:48.632Z,97553.34
2023-04-19T13:25:15.199Z,97553.41
2023-04-19T13:27:41.830Z,97539.59
2023-04-19T13:30:08.844Z,97538.94
2023-04-19T13:32:35.515Z,97526.91
2023-04-19T13:35:02.042Z,97523.34
2023-04-19T13:37:28.717Z,97533.81
2023-04-19T13:40:07.018Z,97532.94
2023-04-19T13:42:41.760Z,97528.72
2023-04-19T13:45:09.596Z,97531.28
2023-04-19T13:47:36.162Z,97523.63
2023-04-19T13:50:02.669Z,97522.75
2023-04-19T13:52:29.200Z,97522.59
2023-04-19T13:54:55.917Z,97528.72
2023-04-19T13:57:22.438Z,97523.63
2023-04-19T13:59:48.954Z,97521.06
2023-04-19T14:02:15.599Z,97521.06
2023-04-19T14:04:42.237Z,97519.41
2023-04-19T14:07:08.830Z,97515.16
2023-04-19T14:09:36.678Z,97509.88
2023-04-19T14:12:04.521Z,97508.25
2023-04-19T14:14:32.438Z,97522.84
2023-04-19T14:16:59.151Z,97517.75
2023-04-19T14:19:26.314Z,97519.50
2023-04-19T14:21:52.887Z,97521.19
2023-04-19T14:24:19.453Z,97513.41
2023-04-19T14:26:48.708Z,97506.75
2023-04-19T14:29:21.105Z,97511.03
2023-04-19T14:31:47.667Z,97506.75
2023-04-19T14:34:14.307Z,97511.84
2023-04-19T14:36:40.844Z,97511.84
2023-04-19T14:39:08.016Z,97511.84
2023-04-19T14:41:34.522Z,97506.75
2023-04-19T14:44:01.239Z,97510.16
2023-04-19T14:46:27.839Z,97507.59
2023-04-19T14:48:54.453Z,97522.91
2023-04-19T14:51:21.048Z,97508.44
2023-04-19T14:53:47.574Z,97501.66
2023-04-19T14:56:14.102Z,97493.13
2023-04-19T14:58:40.723Z,97496.50
2023-04-19T15:01:13.816Z,97486.28
2023-04-19T15:03:40.584Z,97487.13
2023-04-19T15:06:07.696Z,97487.09
2023-04-19T15:08:34.218Z,97491.44
2023-04-19T15:11:00.756Z,97487.13
2023-04-19T15:13:27.332Z,97493.94
2023-04-19T15:15:53.897Z,97493.94
2023-04-19T15:18:20.417Z,97493.06
2023-04-19T15:20:46.958Z,97491.41
2023-04-19T15:23:13.479Z,97502.44
2023-04-19T15:25:40.139Z,97489.59
2023-04-19T15:28:06.683Z,97493.94
2023-04-19T15:30:33.234Z,97499.03
2023-04-19T15:32:59.782Z,97498.94
2023-04-19T15:35:26.302Z,97510.91
2023-04-19T15:37:52.797Z,97509.25
2023-04-19T15:40:19.414Z,97499.78
2023-04-19T15:42:46.352Z,97505.00
2023-04-19T15:45:13.054Z,97504.16
2023-04-19T15:47:39.662Z,97494.78
2023-04-19T15:50:06.687Z,97505.88
2023-04-19T15:52:33.184Z,97506.75
2023-04-19T15:54:59.705Z,97506.75
2023-04-19T15:57:26.208Z,97499.09
2023-04-19T15:59:52.708Z,97510.16
2023-04-19T16:02:19.409Z,97508.47
2023-04-19T16:04:49.753Z,97505.94
2023-04-19T16:07:16.514Z,97509.25
2023-04-19T16:09:43.082Z,97506.75
2023-04-19T16:12:10.266Z,97507.59
2023-04-19T16:14:36.757Z,97491.13
2023-04-19T16:17:03.274Z,97508.44
2023-04-19T16:19:29.800Z,97515.25
2023-04-19T16:21:56.819Z,97512.69
2023-04-19T16:24:23.325Z,97518.63
2023-04-19T16:26:52.043Z,97521.94
2023-04-19T16:29:18.911Z,97515.91
2023-04-19T16:31:45.855Z,97523.69
2023-04-19T16:34:12.518Z,97521.91
2023-04-19T16:36:39.061Z,97522.81
2023-04-19T16:39:05.815Z,97519.41
2023-04-19T16:41:32.347Z,97518.56
2023-04-19T16:43:58.939Z,97510.00
2023-04-19T16:46:25.461Z,97512.53
2023-04-19T16:48:51.997Z,97510.88
2023-04-19T16:51:18.517Z,97510.00
2023-04-19T16:53:45.740Z,97507.44
2023-04-19T16:56:12.336Z,97512.53
2023-04-19T16:58:38.883Z,97507.44
2023-04-19T17:01:05.689Z,97503.00
2023-04-19T17:03:32.467Z,97516.84
2023-04-19T17:05:59.151Z,97513.41
2023-04-19T17:08:26.584Z,97513.41
2023-04-19T17:10:53.168Z,97513.41
2023-04-19T17:13:19.745Z,97504.88
2023-04-19T17:15:46.518Z,97511.75
2023-04-19T17:18:13.218Z,97513.41
2023-04-19T17:20:39.829Z,97510.88
2023-04-19T17:23:06.482Z,97511.75
2023-04-19T17:25:32.993Z,97496.28
2023-04-19T17:27:59.560Z,97518.56
2023-04-19T17:30:26.226Z,97516.03
2023-04-19T17:32:52.970Z,97516.03
2023-04-19T17:35:19.644Z,97515.16
2023-04-19T17:37:46.250Z,97515.97
2023-04-19T17:40:13.076Z,97523.69
2023-04-19T17:42:39.616Z,97521.94
2023-04-19T17:45:10.974Z,97524.56
2023-04-19T17:47:38.609Z,97527.91
2023-04-19T17:50:10.185Z,97533.06
2023-04-19T17:52:36.788Z,97523.63
2023-04-19T17:55:04.745Z,97515.88
2023-04-19T17:57:33.622Z,97526.22
2023-04-19T18:00:00.903Z,97528.78
2023-04-19T18:02:27.876Z,97523.69
2023-04-19T18:04:54.894Z,97529.66
2023-04-19T18:07:21.557Z,97531.31
2023-04-19T18:09:48.154Z,97528.66
2023-04-19T18:12:14.714Z,97526.94
2023-04-19T18:14:41.312Z,97538.16
2023-04-19T18:17:08.024Z,97533.00
2023-04-19T18:19:34.603Z,97538.97
2023-04-19T18:22:01.647Z,97535.44
2023-04-19T18:24:28.213Z,97540.66
2023-04-19T18:26:54.752Z,97540.66
2023-04-19T18:29:23.125Z,97549.19
2023-04-19T18:31:49.661Z,97541.38
2023-04-19T18:34:16.314Z,97549.19
2023-04-19T18:36:42.833Z,97543.25
2023-04-19T18:39:09.382Z,97538.09
2023-04-19T18:41:35.994Z,97540.75
2023-04-19T18:46:32.194Z,97542.47
2023-04-19T18:48:58.777Z,97544.19
2023-04-19T18:51:26.721Z,97554.41
2023-04-19T18:53:53.244Z,97544.84
2023-04-19T18:56:19.825Z,97533.56
2023-04-19T18:58:46.448Z,97545.88
2023-04-19T19:01:13.058Z,97555.28
2023-04-19T19:04:07.766Z,97545.91
2023-04-19T19:06:26.690Z,97546.81
2023-04-19T19:08:54.947Z,97561.22
2023-04-19T19:11:47.197Z,97557.88
2023-04-19T19:14:08.414Z,97545.06
2023-04-19T19:19:07.130Z,97549.34
2023-04-19T19:21:33.663Z,97557.06
2023-04-19T19:24:00.215Z,97542.53
2023-04-19T19:26:26.799Z,97551.84
2023-04-19T19:28:53.659Z,97569.75
2023-04-19T19:31:20.282Z,97564.66
2023-04-19T19:33:56.956Z,97557.00
2023-04-19T19:36:34.478Z,97562.97
2023-04-19T19:39:01.137Z,97568.94
2023-04-19T19:42:00.540Z,97568.09
2023-04-19T19:44:14.184Z,97568.94
2023-04-19T19:46:40.798Z,97574.91
2023-04-19T19:49:12.154Z,97564.72
2023-04-19T19:51:56.817Z,97565.44
2023-04-19T19:54:24.619Z,97564.66
2023-04-19T19:59:21.229Z,97559.59
2023-04-19T20:01:49.144Z,97567.63
2023-04-19T20:04:15.965Z,97549.50
2023-04-19T20:09:12.776Z,97561.91
2023-04-19T20:11:39.335Z,97549.97
2023-04-19T20:14:06.013Z,97561.22
2023-04-19T20:16:33.556Z,97565.56
2023-04-19T20:19:00.230Z,97566.44
2023-04-19T20:21:26.769Z,97569.94
2023-04-19T20:23:53.987Z,97565.75
2023-04-19T20:26:20.590Z,97565.72
2023-04-19T20:28:47.178Z,97565.72
2023-04-19T20:31:13.719Z,97571.84
2023-04-19T20:33:40.638Z,97563.38
2023-04-19T20:36:07.391Z,97565.97
2023-04-19T20:38:34.654Z,97570.19
2023-04-19T20:41:01.365Z,97565.13
2023-04-19T20:43:27.931Z,97551.47
2023-04-19T20:45:54.497Z,97556.75
2023-04-19T20:48:21.128Z,97556.75
2023-04-19T20:50:47.623Z,97555.03
2023-04-19T20:53:14.198Z,97549.81
2023-04-19T20:55:40.873Z,97553.38
2023-04-19T20:58:07.420Z,97547.38
2023-04-19T21:00:33.942Z,97567.00
2023-04-19T21:03:00.756Z,97549.88
2023-04-19T21:05:27.447Z,97555.91
2023-04-19T21:07:54.023Z,97554.25
2023-04-19T21:10:22.093Z,97550.84
2023-04-19T21:12:49.425Z,97545.69
2023-04-19T21:15:16.100Z,97544.88
2023-04-19T21:17:42.743Z,97533.66
2023-04-19T21:20:13.427Z,97544.88
2023-04-19T21:22:43.459Z,97536.38
2023-04-19T21:25:10.586Z,97541.56
2023-04-19T21:27:37.114Z,97538.16
2023-04-19T21:30:04.468Z,97544.13
2023-04-19T21:32:31.174Z,97539.03
2023-04-19T21:34:58.775Z,97539.03
2023-04-19T21:37:25.390Z,97543.25
2023-04-19T21:39:52.027Z,97544.13
2023-04-19T21:42:18.570Z,97543.31
2023-04-19T21:44:45.165Z,97550.09
2023-04-19T21:47:11.970Z,97545.84
2023-04-19T21:49:38.702Z,97540.75
2023-04-19T21:52:06.220Z,97538.19
2023-04-19T21:54:34.340Z,97538.19
2023-04-19T21:57:01.526Z,97520.06
2023-04-19T21:59:28.402Z,97537.31
2023-04-19T22:01:54.949Z,97537.41
2023-04-19T22:04:21.561Z,97534.75
2023-04-19T22:06:48.110Z,97531.41
2023-04-19T22:09:14.773Z,97532.28
2023-04-19T22:11:41.936Z,97502.06
2023-04-19T22:14:09.114Z,97514.09
2023-04-19T22:16:35.846Z,97516.09
2023-04-19T22:19:03.028Z,97513.50
2023-04-19T22:21:30.797Z,97510.94
2023-04-19T22:23:57.391Z,97514.44
2023-04-19T22:26:26.076Z,97448.56
2023-04-19T22:28:53.626Z,97504.03
2023-04-19T22:31:20.177Z,97511.00
2023-04-19T22:33:46.728Z,97509.31
2023-04-19T22:36:13.295Z,97507.56
2023-04-19T22:38:39.866Z,97510.13
2023-04-19T22:41:06.460Z,97503.28
2023-04-19T22:43:33.193Z,97503.28
2023-04-19T22:46:00.099Z,97510.94
2023-04-19T22:48:28.047Z,97503.28
2023-04-19T22:50:54.642Z,97503.28
2023-04-19T22:53:21.130Z,97495.56
2023-04-19T22:55:47.734Z,97494.75
2023-04-19T22:58:14.293Z,97491.38
2023-04-19T23:00:40.966Z,97496.41
2023-04-19T23:03:07.610Z,97488.75
2023-04-19T23:05:34.199Z,97478.44
2023-04-19T23:08:03.998Z,97467.19
2023-04-19T23:10:31.671Z,97478.56
2023-04-19T23:12:58.265Z,97472.59
2023-04-19T23:15:24.934Z,97471.66
2023-04-19T23:17:52.516Z,97476.88
2023-04-19T23:20:19.095Z,97476.00
2023-04-19T23:22:45.808Z,97480.22
2023-04-19T23:25:12.360Z,97462.38
2023-04-19T23:27:38.878Z,97464.94
2023-04-19T23:30:07.339Z,97451.19
2023-04-19T23:32:33.926Z,97441.81
2023-04-19T23:35:00.617Z,97435.06
2023-04-19T23:37:27.135Z,97442.81
2023-04-19T23:39:53.661Z,97441.97
2023-04-19T23:42:20.478Z,97430.78
2023-04-19T23:44:47.010Z,97428.31
2023-04-19T23:47:13.490Z,97435.09
2023-04-19T23:49:39.989Z,97415.56
2023-04-19T23:52:06.561Z,97425.78
2023-04-19T23:54:33.079Z,97415.56
2023-04-19T23:56:59.700Z,97415.50
2023-04-19T23:59:29.100Z,97413.88
